sensor_id;sensor_type;location;lat;lon;timestamp;temperature;humidity
20558;DHT22;10437;48.156;11.530;2022-10-03T00:03:58;11.80;99.90
20558;DHT22;10437;48.156;11.530;2022-10-03T00:06:39;11.90;99.90
20558;DHT22;10437;48.156;11.530;2022-10-03T00:09:17;11.80;99.90
20558;DHT22;10437;48.156;11.530;2022-10-03T00:12:01;11.70;99.90
20558;DHT22;10437;48.156;11.530;2022-10-03T00:14:34;11.70;99.90
20558;DHT22;10437;48.156;11.530;2022-10-03T00:17:12;11.80;99.90
20558;DHT22;10437;48.156;11.530;2022-10-03T00:19:45;11.70;99.90
20558;DHT22;10437;48.156;11.530;2022-10-03T00:22:23;11.30;99.90
20558;DHT22;10437;48.156;11.530;2022-10-03T00:25:13;11.50;99.90
20558;DHT22;10437;48.156;11.530;2022-10-03T00:27:52;10.90;99.90
20558;DHT22;10437;48.156;11.530;2022-10-03T00:30:23;11.30;99.90
20558;DHT22;10437;48.156;11.530;2022-10-03T00:33:03;11.70;99.90
20558;DHT22;10437;48.156;11.530;2022-10-03T00:35:41;11.10;99.90
20558;DHT22;10437;48.156;11.530;2022-10-03T00:38:24;11.40;99.90
20558;DHT22;10437;48.156;11.530;2022-10-03T00:47:53;11.30;99.90
20558;DHT22;10437;48.156;11.530;2022-10-03T00:50:41;11.20;99.90
20558;DHT22;10437;48.156;11.530;2022-10-03T00:53:40;11.60;99.90
20558;DHT22;10437;48.156;11.530;2022-10-03T00:56:28;11.20;99.90
20558;DHT22;10437;48.156;11.530;2022-10-03T00:59:18;11.20;99.90
20558;DHT22;10437;48.156;11.530;2022-10-03T01:01:48;11.20;99.90
20558;DHT22;10437;48.156;11.530;2022-10-03T01:04:33;11.10;99.90
20558;DHT22;10437;48.156;11.530;2022-10-03T01:07:29;11.00;99.90
20558;DHT22;10437;48.156;11.530;2022-10-03T01:10:10;11.00;99.90
20558;DHT22;10437;48.156;11.530;2022-10-03T01:12:55;11.10;99.90
20558;DHT22;10437;48.156;11.530;2022-10-03T01:15:30;11.20;99.90
20558;DHT22;10437;48.156;11.530;2022-10-03T01:18:10;10.50;99.90
20558;DHT22;10437;48.156;11.530;2022-10-03T01:20:48;10.60;99.90
20558;DHT22;10437;48.156;11.530;2022-10-03T01:23:41;10.90;99.90
20558;DHT22;10437;48.156;11.530;2022-10-03T01:26:25;10.90;99.90
20558;DHT22;10437;48.156;11.530;2022-10-03T01:29:04;11.20;99.90
20558;DHT22;10437;48.156;11.530;2022-10-03T01:31:53;11.20;99.90
20558;DHT22;10437;48.156;11.530;2022-10-03T01:34:30;11.10;99.90
20558;DHT22;10437;48.156;11.530;2022-10-03T01:37:04;10.80;99.90
20558;DHT22;10437;48.156;11.530;2022-10-03T01:39:40;10.80;99.90
20558;DHT22;10437;48.156;11.530;2022-10-03T01:42:15;10.70;99.90
20558;DHT22;10437;48.156;11.530;2022-10-03T01:44:56;10.70;99.90
20558;DHT22;10437;48.156;11.530;2022-10-03T01:47:32;10.70;99.90
20558;DHT22;10437;48.156;11.530;2022-10-03T01:50:11;10.70;99.90
20558;DHT22;10437;48.156;11.530;2022-10-03T01:52:50;10.70;99.90
20558;DHT22;10437;48.156;11.530;2022-10-03T01:55:22;10.70;99.90
20558;DHT22;10437;48.156;11.530;2022-10-03T01:57:56;10.60;99.90
20558;DHT22;10437;48.156;11.530;2022-10-03T02:00:32;10.70;99.90
20558;DHT22;10437;48.156;11.530;2022-10-03T02:03:08;10.70;99.90
20558;DHT22;10437;48.156;11.530;2022-10-03T02:05:44;10.60;99.90
20558;DHT22;10437;48.156;11.530;2022-10-03T02:08:22;11.10;99.90
20558;DHT22;10437;48.156;11.530;2022-10-03T02:10:57;10.70;99.90
20558;DHT22;10437;48.156;11.530;2022-10-03T02:13:30;10.60;99.90
20558;DHT22;10437;48.156;11.530;2022-10-03T02:16:09;10.50;99.90
20558;DHT22;10437;48.156;11.530;2022-10-03T02:18:41;10.70;99.90
20558;DHT22;10437;48.156;11.530;2022-10-03T02:21:13;8.30;99.90
20558;DHT22;10437;48.156;11.530;2022-10-03T02:23:40;10.60;99.90
20558;DHT22;10437;48.156;11.530;2022-10-03T02:26:48;10.60;99.90
20558;DHT22;10437;48.156;11.530;2022-10-03T02:29:34;10.70;99.90
20558;DHT22;10437;48.156;11.530;2022-10-03T02:35:27;10.60;99.90
20558;DHT22;10437;48.156;11.530;2022-10-03T02:38:25;10.40;99.90
20558;DHT22;10437;48.156;11.530;2022-10-03T02:44:37;10.50;99.90
20558;DHT22;10437;48.156;11.530;2022-10-03T02:47:43;10.70;99.90
20558;DHT22;10437;48.156;11.530;2022-10-03T02:50:39;10.50;99.90
20558;DHT22;10437;48.156;11.530;2022-10-03T02:53:38;10.40;99.90
20558;DHT22;10437;48.156;11.530;2022-10-03T03:00:03;10.20;99.90
20558;DHT22;10437;48.156;11.530;2022-10-03T03:06:09;10.30;99.90
20558;DHT22;10437;48.156;11.530;2022-10-03T03:09:00;10.40;99.90
20558;DHT22;10437;48.156;11.530;2022-10-03T03:11:54;10.30;99.90
20558;DHT22;10437;48.156;11.530;2022-10-03T03:15:07;10.20;99.90
20558;DHT22;10437;48.156;11.530;2022-10-03T03:17:46;10.20;99.90
20558;DHT22;10437;48.156;11.530;2022-10-03T03:20:40;10.20;99.90
20558;DHT22;10437;48.156;11.530;2022-10-03T03:23:38;10.20;99.90
20558;DHT22;10437;48.156;11.530;2022-10-03T03:26:25;10.20;99.90
20558;DHT22;10437;48.156;11.530;2022-10-03T03:29:03;10.20;99.90
20558;DHT22;10437;48.156;11.530;2022-10-03T03:31:40;10.20;99.90
20558;DHT22;10437;48.156;11.530;2022-10-03T03:34:13;10.10;99.90
20558;DHT22;10437;48.156;11.530;2022-10-03T03:36:48;10.10;99.90
20558;DHT22;10437;48.156;11.530;2022-10-03T03:39:32;10.10;99.90
20558;DHT22;10437;48.156;11.530;2022-10-03T03:42:11;10.10;99.90
20558;DHT22;10437;48.156;11.530;2022-10-03T03:44:55;10.00;99.90
20558;DHT22;10437;48.156;11.530;2022-10-03T03:47:40;10.10;99.90
20558;DHT22;10437;48.156;11.530;2022-10-03T03:50:30;10.10;99.90
20558;DHT22;10437;48.156;11.530;2022-10-03T03:53:23;10.10;99.90
20558;DHT22;10437;48.156;11.530;2022-10-03T03:56:16;10.00;99.90
20558;DHT22;10437;48.156;11.530;2022-10-03T03:58:51;10.10;99.90
20558;DHT22;10437;48.156;11.530;2022-10-03T04:01:40;10.20;99.90
20558;DHT22;10437;48.156;11.530;2022-10-03T04:04:20;10.10;99.90
20558;DHT22;10437;48.156;11.530;2022-10-03T04:06:56;10.10;99.90
20558;DHT22;10437;48.156;11.530;2022-10-03T04:09:47;10.00;99.90
20558;DHT22;10437;48.156;11.530;2022-10-03T04:12:30;9.90;99.90
20558;DHT22;10437;48.156;11.530;2022-10-03T04:15:21;10.00;99.90
20558;DHT22;10437;48.156;11.530;2022-10-03T04:18:08;9.90;99.90
20558;DHT22;10437;48.156;11.530;2022-10-03T04:24:04;9.70;99.90
20558;DHT22;10437;48.156;11.530;2022-10-03T04:26:49;9.50;99.90
20558;DHT22;10437;48.156;11.530;2022-10-03T04:29:43;9.60;99.90
20558;DHT22;10437;48.156;11.530;2022-10-03T04:32:26;9.50;99.90
20558;DHT22;10437;48.156;11.530;2022-10-03T04:35:14;9.60;99.90
20558;DHT22;10437;48.156;11.530;2022-10-03T04:37:46;9.80;99.90
20558;DHT22;10437;48.156;11.530;2022-10-03T04:40:24;9.70;99.90
20558;DHT22;10437;48.156;11.530;2022-10-03T04:43:01;9.60;99.90
20558;DHT22;10437;48.156;11.530;2022-10-03T04:45:39;9.70;99.90
20558;DHT22;10437;48.156;11.530;2022-10-03T04:48:14;9.70;99.90
20558;DHT22;10437;48.156;11.530;2022-10-03T04:50:46;9.70;99.90
20558;DHT22;10437;48.156;11.530;2022-10-03T04:53:21;9.70;99.90
20558;DHT22;10437;48.156;11.530;2022-10-03T04:55:52;10.00;99.90
20558;DHT22;10437;48.156;11.530;2022-10-03T04:58:28;9.70;99.90
20558;DHT22;10437;48.156;11.530;2022-10-03T05:01:05;9.60;99.90
20558;DHT22;10437;48.156;11.530;2022-10-03T05:03:42;9.60;99.90
20558;DHT22;10437;48.156;11.530;2022-10-03T05:06:24;9.60;99.90
20558;DHT22;10437;48.156;11.530;2022-10-03T05:08:58;9.20;99.90
20558;DHT22;10437;48.156;11.530;2022-10-03T05:11:39;9.40;99.90
20558;DHT22;10437;48.156;11.530;2022-10-03T05:14:11;9.70;99.90
20558;DHT22;10437;48.156;11.530;2022-10-03T05:16:45;9.20;99.90
20558;DHT22;10437;48.156;11.530;2022-10-03T05:19:43;9.50;99.90
20558;DHT22;10437;48.156;11.530;2022-10-03T05:22:19;9.50;99.90
20558;DHT22;10437;48.156;11.530;2022-10-03T05:24:57;9.40;99.90
20558;DHT22;10437;48.156;11.530;2022-10-03T05:27:34;9.50;99.90
20558;DHT22;10437;48.156;11.530;2022-10-03T05:30:07;9.40;99.90
20558;DHT22;10437;48.156;11.530;2022-10-03T05:32:39;9.50;99.90
20558;DHT22;10437;48.156;11.530;2022-10-03T05:35:29;9.50;99.90
20558;DHT22;10437;48.156;11.530;2022-10-03T05:38:20;9.50;99.90
20558;DHT22;10437;48.156;11.530;2022-10-03T05:41:00;9.50;99.90
20558;DHT22;10437;48.156;11.530;2022-10-03T05:43:42;9.50;99.90
20558;DHT22;10437;48.156;11.530;2022-10-03T05:46:19;9.40;99.90
20558;DHT22;10437;48.156;11.530;2022-10-03T05:48:52;9.50;99.90
20558;DHT22;10437;48.156;11.530;2022-10-03T05:51:45;9.60;99.90
20558;DHT22;10437;48.156;11.530;2022-10-03T05:58:10;9.70;99.90
20558;DHT22;10437;48.156;11.530;2022-10-03T06:01:05;9.60;99.90
20558;DHT22;10437;48.156;11.530;2022-10-03T06:06:50;9.50;99.90
20558;DHT22;10437;48.156;11.530;2022-10-03T06:09:43;9.70;99.90
20558;DHT22;10437;48.156;11.530;2022-10-03T06:12:20;9.50;99.90
20558;DHT22;10437;48.156;11.530;2022-10-03T06:15:13;9.60;99.90
20558;DHT22;10437;48.156;11.530;2022-10-03T06:18:14;9.50;99.90
20558;DHT22;10437;48.156;11.530;2022-10-03T06:30:20;9.60;99.90
20558;DHT22;10437;48.156;11.530;2022-10-03T06:42:20;9.70;99.90
20558;DHT22;10437;48.156;11.530;2022-10-03T06:45:21;10.20;99.90
20558;DHT22;10437;48.156;11.530;2022-10-03T06:50:53;9.70;99.90
20558;DHT22;10437;48.156;11.530;2022-10-03T06:53:43;10.10;99.90
20558;DHT22;10437;48.156;11.530;2022-10-03T06:59:44;10.10;99.90
20558;DHT22;10437;48.156;11.530;2022-10-03T07:18:19;10.20;99.90
20558;DHT22;10437;48.156;11.530;2022-10-03T07:24:03;10.30;99.90
20558;DHT22;10437;48.156;11.530;2022-10-03T07:27:03;10.30;99.90
20558;DHT22;10437;48.156;11.530;2022-10-03T07:30:03;10.40;99.90
20558;DHT22;10437;48.156;11.530;2022-10-03T07:35:44;10.50;99.90
20558;DHT22;10437;48.156;11.530;2022-10-03T07:39:02;10.60;99.90
20558;DHT22;10437;48.156;11.530;2022-10-03T07:41:56;10.50;99.90
20558;DHT22;10437;48.156;11.530;2022-10-03T07:44:59;10.20;99.90
20558;DHT22;10437;48.156;11.530;2022-10-03T07:48:03;10.60;99.90
20558;DHT22;10437;48.156;11.530;2022-10-03T07:50:58;10.70;99.90
20558;DHT22;10437;48.156;11.530;2022-10-03T08:03:07;10.80;99.90
20558;DHT22;10437;48.156;11.530;2022-10-03T08:05:48;10.90;99.90
20558;DHT22;10437;48.156;11.530;2022-10-03T08:12:09;11.00;99.90
20558;DHT22;10437;48.156;11.530;2022-10-03T08:14:51;10.90;99.90
20558;DHT22;10437;48.156;11.530;2022-10-03T08:20:37;10.80;99.90
20558;DHT22;10437;48.156;11.530;2022-10-03T08:26:07;10.80;99.90
20558;DHT22;10437;48.156;11.530;2022-10-03T08:32:08;10.80;99.90
20558;DHT22;10437;48.156;11.530;2022-10-03T08:35:27;10.90;99.90
20558;DHT22;10437;48.156;11.530;2022-10-03T08:38:14;10.80;99.90
20558;DHT22;10437;48.156;11.530;2022-10-03T08:41:18;10.80;99.90
20558;DHT22;10437;48.156;11.530;2022-10-03T08:44:32;10.80;99.90
20558;DHT22;10437;48.156;11.530;2022-10-03T08:47:34;10.90;99.90
20558;DHT22;10437;48.156;11.530;2022-10-03T08:54:01;10.90;99.90
20558;DHT22;10437;48.156;11.530;2022-10-03T08:56:52;10.90;99.90
20558;DHT22;10437;48.156;11.530;2022-10-03T09:00:06;10.80;99.90
20558;DHT22;10437;48.156;11.530;2022-10-03T09:06:15;11.00;99.90
20558;DHT22;10437;48.156;11.530;2022-10-03T09:09:09;11.00;99.90
20558;DHT22;10437;48.156;11.530;2022-10-03T09:15:04;11.30;99.90
20558;DHT22;10437;48.156;11.530;2022-10-03T09:17:58;11.30;99.90
20558;DHT22;10437;48.156;11.530;2022-10-03T09:30:12;11.80;99.90
20558;DHT22;10437;48.156;11.530;2022-10-03T09:32:55;11.90;99.90
20558;DHT22;10437;48.156;11.530;2022-10-03T09:36:13;11.90;99.90
20558;DHT22;10437;48.156;11.530;2022-10-03T09:44:38;11.90;99.90
20558;DHT22;10437;48.156;11.530;2022-10-03T09:47:49;11.80;99.90
20558;DHT22;10437;48.156;11.530;2022-10-03T09:54:19;11.90;99.90
20558;DHT22;10437;48.156;11.530;2022-10-03T09:57:16;12.00;99.90
20558;DHT22;10437;48.156;11.530;2022-10-03T10:00:19;12.20;99.90
20558;DHT22;10437;48.156;11.530;2022-10-03T10:03:06;12.30;99.90
20558;DHT22;10437;48.156;11.530;2022-10-03T10:08:47;12.40;99.90
20558;DHT22;10437;48.156;11.530;2022-10-03T10:11:28;12.30;99.90
20558;DHT22;10437;48.156;11.530;2022-10-03T10:14:15;12.20;99.90
20558;DHT22;10437;48.156;11.530;2022-10-03T10:19:52;12.40;99.90
20558;DHT22;10437;48.156;11.530;2022-10-03T10:22:51;11.70;99.90
20558;DHT22;10437;48.156;11.530;2022-10-03T10:25:32;12.70;99.90
20558;DHT22;10437;48.156;11.530;2022-10-03T10:28:33;12.60;99.90
20558;DHT22;10437;48.156;11.530;2022-10-03T10:34:35;12.80;99.90
20558;DHT22;10437;48.156;11.530;2022-10-03T10:37:38;12.70;99.90
20558;DHT22;10437;48.156;11.530;2022-10-03T10:40:36;12.90;99.90
20558;DHT22;10437;48.156;11.530;2022-10-03T10:43:40;13.10;99.90
20558;DHT22;10437;48.156;11.530;2022-10-03T10:46:41;13.20;99.90
20558;DHT22;10437;48.156;11.530;2022-10-03T10:56:11;13.40;99.90
20558;DHT22;10437;48.156;11.530;2022-10-03T11:02:38;13.70;99.90
20558;DHT22;10437;48.156;11.530;2022-10-03T11:11:33;13.90;99.90
20558;DHT22;10437;48.156;11.530;2022-10-03T11:14:47;14.40;99.90
20558;DHT22;10437;48.156;11.530;2022-10-03T11:17:38;14.60;99.90
20558;DHT22;10437;48.156;11.530;2022-10-03T11:20:59;15.10;99.90
20558;DHT22;10437;48.156;11.530;2022-10-03T11:30:06;16.30;99.90
20558;DHT22;10437;48.156;11.530;2022-10-03T11:39:00;13.60;99.90
20558;DHT22;10437;48.156;11.530;2022-10-03T11:41:39;15.80;99.90
20558;DHT22;10437;48.156;11.530;2022-10-03T11:44:15;15.80;99.90
20558;DHT22;10437;48.156;11.530;2022-10-03T11:50:20;15.70;99.90
20558;DHT22;10437;48.156;11.530;2022-10-03T11:55:44;15.70;99.90
20558;DHT22;10437;48.156;11.530;2022-10-03T11:58:32;15.70;99.90
20558;DHT22;10437;48.156;11.530;2022-10-03T12:01:17;15.60;99.90
20558;DHT22;10437;48.156;11.530;2022-10-03T12:03:52;15.80;99.90
20558;DHT22;10437;48.156;11.530;2022-10-03T12:06:44;15.50;99.90
20558;DHT22;10437;48.156;11.530;2022-10-03T12:09:39;15.70;99.90
20558;DHT22;10437;48.156;11.530;2022-10-03T12:12:15;15.90;99.90
20558;DHT22;10437;48.156;11.530;2022-10-03T12:14:48;15.80;99.90
20558;DHT22;10437;48.156;11.530;2022-10-03T12:17:25;15.70;99.90
20558;DHT22;10437;48.156;11.530;2022-10-03T12:20:00;15.80;99.90
20558;DHT22;10437;48.156;11.530;2022-10-03T12:22:40;15.50;99.90
20558;DHT22;10437;48.156;11.530;2022-10-03T12:25:18;15.30;99.90
20558;DHT22;10437;48.156;11.530;2022-10-03T12:28:07;15.70;99.90
20558;DHT22;10437;48.156;11.530;2022-10-03T12:30:43;15.80;99.90
20558;DHT22;10437;48.156;11.530;2022-10-03T12:33:27;16.00;99.90
20558;DHT22;10437;48.156;11.530;2022-10-03T12:36:03;15.70;99.90
20558;DHT22;10437;48.156;11.530;2022-10-03T12:38:45;15.60;99.90
20558;DHT22;10437;48.156;11.530;2022-10-03T12:41:23;15.50;99.90
20558;DHT22;10437;48.156;11.530;2022-10-03T12:44:05;15.40;99.90
20558;DHT22;10437;48.156;11.530;2022-10-03T12:46:41;15.30;99.90
20558;DHT22;10437;48.156;11.530;2022-10-03T12:49:15;15.20;99.90
20558;DHT22;10437;48.156;11.530;2022-10-03T12:51:54;15.30;99.90
20558;DHT22;10437;48.156;11.530;2022-10-03T12:54:38;15.40;99.90
20558;DHT22;10437;48.156;11.530;2022-10-03T12:57:37;16.10;99.90
20558;DHT22;10437;48.156;11.530;2022-10-03T13:00:15;16.60;99.90
20558;DHT22;10437;48.156;11.530;2022-10-03T13:02:52;16.80;99.90
20558;DHT22;10437;48.156;11.530;2022-10-03T13:05:39;17.20;99.90
20558;DHT22;10437;48.156;11.530;2022-10-03T13:08:21;17.50;99.90
20558;DHT22;10437;48.156;11.530;2022-10-03T13:10:55;17.70;99.90
20558;DHT22;10437;48.156;11.530;2022-10-03T13:13:30;18.00;99.90
20558;DHT22;10437;48.156;11.530;2022-10-03T13:16:16;17.90;99.90
20558;DHT22;10437;48.156;11.530;2022-10-03T13:18:52;17.50;99.90
20558;DHT22;10437;48.156;11.530;2022-10-03T13:21:41;17.40;99.90
20558;DHT22;10437;48.156;11.530;2022-10-03T13:24:18;16.80;99.90
20558;DHT22;10437;48.156;11.530;2022-10-03T13:26:52;16.50;99.90
20558;DHT22;10437;48.156;11.530;2022-10-03T13:29:26;16.20;99.90
20558;DHT22;10437;48.156;11.530;2022-10-03T13:32:14;16.20;99.90
20558;DHT22;10437;48.156;11.530;2022-10-03T13:35:02;18.50;99.90
20558;DHT22;10437;48.156;11.530;2022-10-03T13:38:00;16.40;99.90
20558;DHT22;10437;48.156;11.530;2022-10-03T13:40:32;16.80;99.90
20558;DHT22;10437;48.156;11.530;2022-10-03T13:43:02;17.00;99.90
20558;DHT22;10437;48.156;11.530;2022-10-03T13:45:37;17.00;99.90
20558;DHT22;10437;48.156;11.530;2022-10-03T13:48:07;16.80;99.90
20558;DHT22;10437;48.156;11.530;2022-10-03T13:50:41;17.60;99.90
20558;DHT22;10437;48.156;11.530;2022-10-03T13:53:33;17.50;99.90
20558;DHT22;10437;48.156;11.530;2022-10-03T13:56:10;17.80;99.90
20558;DHT22;10437;48.156;11.530;2022-10-03T13:58:47;18.10;99.90
20558;DHT22;10437;48.156;11.530;2022-10-03T14:01:36;17.80;99.90
20558;DHT22;10437;48.156;11.530;2022-10-03T14:04:30;17.80;99.90
20558;DHT22;10437;48.156;11.530;2022-10-03T14:07:06;17.90;99.90
20558;DHT22;10437;48.156;11.530;2022-10-03T14:09:54;17.90;99.90
20558;DHT22;10437;48.156;11.530;2022-10-03T14:12:32;18.10;99.90
20558;DHT22;10437;48.156;11.530;2022-10-03T14:15:24;17.90;99.90
20558;DHT22;10437;48.156;11.530;2022-10-03T14:18:03;17.60;99.90
20558;DHT22;10437;48.156;11.530;2022-10-03T14:20:37;17.70;99.90
20558;DHT22;10437;48.156;11.530;2022-10-03T14:23:21;17.20;99.90
20558;DHT22;10437;48.156;11.530;2022-10-03T14:26:12;16.70;99.90
20558;DHT22;10437;48.156;11.530;2022-10-03T14:28:50;16.70;99.90
20558;DHT22;10437;48.156;11.530;2022-10-03T14:31:34;16.50;99.90
20558;DHT22;10437;48.156;11.530;2022-10-03T14:34:38;16.20;99.90
20558;DHT22;10437;48.156;11.530;2022-10-03T14:37:24;16.10;99.90
20558;DHT22;10437;48.156;11.530;2022-10-03T14:40:08;15.90;99.90
20558;DHT22;10437;48.156;11.530;2022-10-03T14:43:08;15.70;99.90
20558;DHT22;10437;48.156;11.530;2022-10-03T14:45:48;15.70;99.90
20558;DHT22;10437;48.156;11.530;2022-10-03T14:48:45;15.60;99.90
20558;DHT22;10437;48.156;11.530;2022-10-03T14:51:24;15.30;99.90
20558;DHT22;10437;48.156;11.530;2022-10-03T14:54:15;15.40;99.90
20558;DHT22;10437;48.156;11.530;2022-10-03T14:56:53;15.40;99.90
20558;DHT22;10437;48.156;11.530;2022-10-03T14:59:32;15.00;99.90
20558;DHT22;10437;48.156;11.530;2022-10-03T15:02:16;15.00;99.90
20558;DHT22;10437;48.156;11.530;2022-10-03T15:04:52;14.90;99.90
20558;DHT22;10437;48.156;11.530;2022-10-03T15:10:12;14.80;99.90
20558;DHT22;10437;48.156;11.530;2022-10-03T15:12:51;14.60;99.90
20558;DHT22;10437;48.156;11.530;2022-10-03T15:15:28;14.50;99.90
20558;DHT22;10437;48.156;11.530;2022-10-03T15:18:04;14.50;99.90
20558;DHT22;10437;48.156;11.530;2022-10-03T15:20:42;14.50;99.90
20558;DHT22;10437;48.156;11.530;2022-10-03T15:23:22;14.60;99.90
20558;DHT22;10437;48.156;11.530;2022-10-03T15:26:04;14.30;99.90
20558;DHT22;10437;48.156;11.530;2022-10-03T15:28:40;14.00;99.90
20558;DHT22;10437;48.156;11.530;2022-10-03T15:31:34;14.30;99.90
20558;DHT22;10437;48.156;11.530;2022-10-03T15:34:13;14.10;99.90
20558;DHT22;10437;48.156;11.530;2022-10-03T15:36:57;14.30;99.90
20558;DHT22;10437;48.156;11.530;2022-10-03T15:39:30;14.10;99.90
20558;DHT22;10437;48.156;11.530;2022-10-03T15:42:20;14.30;99.90
20558;DHT22;10437;48.156;11.530;2022-10-03T15:45:05;14.10;99.90
20558;DHT22;10437;48.156;11.530;2022-10-03T15:47:42;14.10;99.90
20558;DHT22;10437;48.156;11.530;2022-10-03T15:50:23;13.90;99.90
20558;DHT22;10437;48.156;11.530;2022-10-03T15:53:17;14.00;99.90
20558;DHT22;10437;48.156;11.530;2022-10-03T15:55:58;14.10;99.90
20558;DHT22;10437;48.156;11.530;2022-10-03T15:58:43;13.90;99.90
20558;DHT22;10437;48.156;11.530;2022-10-03T16:01:15;13.80;99.90
20558;DHT22;10437;48.156;11.530;2022-10-03T16:03:48;13.80;99.90
20558;DHT22;10437;48.156;11.530;2022-10-03T16:06:28;13.80;99.90
20558;DHT22;10437;48.156;11.530;2022-10-03T16:09:00;13.40;99.90
20558;DHT22;10437;48.156;11.530;2022-10-03T16:11:50;14.30;99.90
20558;DHT22;10437;48.156;11.530;2022-10-03T16:14:49;13.50;99.90
20558;DHT22;10437;48.156;11.530;2022-10-03T16:17:40;13.40;99.90
20558;DHT22;10437;48.156;11.530;2022-10-03T16:20:25;13.40;99.90
20558;DHT22;10437;48.156;11.530;2022-10-03T16:22:56;13.30;99.90
20558;DHT22;10437;48.156;11.530;2022-10-03T16:25:41;13.30;99.90
20558;DHT22;10437;48.156;11.530;2022-10-03T16:28:21;13.20;99.90
20558;DHT22;10437;48.156;11.530;2022-10-03T16:30:53;13.10;99.90
20558;DHT22;10437;48.156;11.530;2022-10-03T16:33:24;13.10;99.90
20558;DHT22;10437;48.156;11.530;2022-10-03T16:35:57;12.90;99.90
20558;DHT22;10437;48.156;11.530;2022-10-03T16:38:25;13.00;99.90
20558;DHT22;10437;48.156;11.530;2022-10-03T16:40:56;13.00;99.90
20558;DHT22;10437;48.156;11.530;2022-10-03T16:43:26;12.80;99.90
20558;DHT22;10437;48.156;11.530;2022-10-03T16:48:24;12.60;99.90
20558;DHT22;10437;48.156;11.530;2022-10-03T16:51:17;12.50;99.90
20558;DHT22;10437;48.156;11.530;2022-10-03T16:53:47;12.80;99.90
20558;DHT22;10437;48.156;11.530;2022-10-03T16:56:16;12.50;99.90
20558;DHT22;10437;48.156;11.530;2022-10-03T16:58:48;12.50;99.90
20558;DHT22;10437;48.156;11.530;2022-10-03T17:01:24;12.50;99.90
20558;DHT22;10437;48.156;11.530;2022-10-03T17:03:56;12.40;99.90
20558;DHT22;10437;48.156;11.530;2022-10-03T17:06:28;12.30;99.90
20558;DHT22;10437;48.156;11.530;2022-10-03T17:09:00;12.30;99.90
20558;DHT22;10437;48.156;11.530;2022-10-03T17:11:30;12.10;99.90
20558;DHT22;10437;48.156;11.530;2022-10-03T17:14:01;12.10;99.90
20558;DHT22;10437;48.156;11.530;2022-10-03T17:16:33;12.10;99.90
20558;DHT22;10437;48.156;11.530;2022-10-03T17:19:14;12.00;99.90
20558;DHT22;10437;48.156;11.530;2022-10-03T17:21:46;11.90;99.90
20558;DHT22;10437;48.156;11.530;2022-10-03T17:24:26;12.10;99.90
20558;DHT22;10437;48.156;11.530;2022-10-03T17:26:55;11.80;99.90
20558;DHT22;10437;48.156;11.530;2022-10-03T17:29:29;11.90;99.90
20558;DHT22;10437;48.156;11.530;2022-10-03T17:32:13;11.70;99.90
20558;DHT22;10437;48.156;11.530;2022-10-03T17:34:45;11.60;99.90
20558;DHT22;10437;48.156;11.530;2022-10-03T17:40:17;12.40;99.90
20558;DHT22;10437;48.156;11.530;2022-10-03T17:42:50;11.70;99.90
20558;DHT22;10437;48.156;11.530;2022-10-03T17:45:29;11.60;99.90
20558;DHT22;10437;48.156;11.530;2022-10-03T17:48:03;11.60;99.90
20558;DHT22;10437;48.156;11.530;2022-10-03T17:50:37;11.60;99.90
20558;DHT22;10437;48.156;11.530;2022-10-03T17:53:18;11.60;99.90
20558;DHT22;10437;48.156;11.530;2022-10-03T17:55:47;11.50;99.90
20558;DHT22;10437;48.156;11.530;2022-10-03T17:58:18;11.70;99.90
20558;DHT22;10437;48.156;11.530;2022-10-03T18:00:59;11.50;99.90
20558;DHT22;10437;48.156;11.530;2022-10-03T18:03:30;11.40;99.90
20558;DHT22;10437;48.156;11.530;2022-10-03T18:06:01;11.30;99.90
20558;DHT22;10437;48.156;11.530;2022-10-03T18:08:34;10.60;99.90
20558;DHT22;10437;48.156;11.530;2022-10-03T18:11:02;11.30;99.90
20558;DHT22;10437;48.156;11.530;2022-10-03T18:13:36;11.30;99.90
20558;DHT22;10437;48.156;11.530;2022-10-03T18:16:21;11.30;99.90
20558;DHT22;10437;48.156;11.530;2022-10-03T18:19:08;11.30;99.90
20558;DHT22;10437;48.156;11.530;2022-10-03T18:21:54;11.00;99.90
20558;DHT22;10437;48.156;11.530;2022-10-03T18:24:38;11.20;99.90
20558;DHT22;10437;48.156;11.530;2022-10-03T18:27:20;11.40;99.90
20558;DHT22;10437;48.156;11.530;2022-10-03T18:29:57;11.10;99.90
20558;DHT22;10437;48.156;11.530;2022-10-03T18:32:36;11.10;99.90
20558;DHT22;10437;48.156;11.530;2022-10-03T18:35:14;11.10;99.90
20558;DHT22;10437;48.156;11.530;2022-10-03T18:38:04;10.50;99.90
20558;DHT22;10437;48.156;11.530;2022-10-03T18:40:35;11.00;99.90
20558;DHT22;10437;48.156;11.530;2022-10-03T18:43:03;11.10;99.90
20558;DHT22;10437;48.156;11.530;2022-10-03T18:45:36;10.90;99.90
20558;DHT22;10437;48.156;11.530;2022-10-03T18:48:11;10.90;99.90
20558;DHT22;10437;48.156;11.530;2022-10-03T18:50:52;10.90;99.90
20558;DHT22;10437;48.156;11.530;2022-10-03T18:53:28;10.90;99.90
20558;DHT22;10437;48.156;11.530;2022-10-03T18:56:01;10.80;99.90
20558;DHT22;10437;48.156;11.530;2022-10-03T18:58:32;10.70;99.90
20558;DHT22;10437;48.156;11.530;2022-10-03T19:01:04;10.70;99.90
20558;DHT22;10437;48.156;11.530;2022-10-03T19:03:35;10.60;99.90
20558;DHT22;10437;48.156;11.530;2022-10-03T19:06:05;10.90;99.90
20558;DHT22;10437;48.156;11.530;2022-10-03T19:08:36;10.70;99.90
20558;DHT22;10437;48.156;11.530;2022-10-03T19:11:16;10.60;99.90
20558;DHT22;10437;48.156;11.530;2022-10-03T19:13:54;10.70;99.90
20558;DHT22;10437;48.156;11.530;2022-10-03T19:16:51;10.80;99.90
20558;DHT22;10437;48.156;11.530;2022-10-03T19:19:24;10.60;99.90
20558;DHT22;10437;48.156;11.530;2022-10-03T19:21:55;10.60;99.90
20558;DHT22;10437;48.156;11.530;2022-10-03T19:26:58;10.50;99.90
20558;DHT22;10437;48.156;11.530;2022-10-03T19:29:28;10.20;99.90
20558;DHT22;10437;48.156;11.530;2022-10-03T19:32:00;10.50;99.90
20558;DHT22;10437;48.156;11.530;2022-10-03T19:34:34;10.40;99.90
20558;DHT22;10437;48.156;11.530;2022-10-03T19:37:04;10.20;99.90
20558;DHT22;10437;48.156;11.530;2022-10-03T19:42:19;10.40;99.90
20558;DHT22;10437;48.156;11.530;2022-10-03T19:44:47;10.30;99.90
20558;DHT22;10437;48.156;11.530;2022-10-03T19:47:16;10.20;99.90
20558;DHT22;10437;48.156;11.530;2022-10-03T19:49:51;10.20;99.90
20558;DHT22;10437;48.156;11.530;2022-10-03T19:52:26;10.30;99.90
20558;DHT22;10437;48.156;11.530;2022-10-03T19:54:59;10.10;99.90
20558;DHT22;10437;48.156;11.530;2022-10-03T19:57:36;10.20;99.90
20558;DHT22;10437;48.156;11.530;2022-10-03T20:00:07;10.30;99.90